sensor_id;sensor_type;location;lat;lon;timestamp;P1;durP1;ratioP1;P2;durP2;ratioP2
39924;SDS011;25592;49.986;11.618;2023-03-01T00:02:34;16.50;;;8.18;;
39924;SDS011;25592;49.986;11.618;2023-03-01T00:05:19;19.90;;;9.57;;
39924;SDS011;25592;49.986;11.618;2023-03-01T00:08:05;19.15;;;8.75;;
39924;SDS011;25592;49.986;11.618;2023-03-01T00:10:59;18.30;;;9.13;;
39924;SDS011;25592;49.986;11.618;2023-03-01T00:13:50;17.42;;;8.18;;
39924;SDS011;25592;49.986;11.618;2023-03-01T00:16:38;20.65;;;9.23;;
39924;SDS011;25592;49.986;11.618;2023-03-01T00:19:25;18.75;;;9.32;;
39924;SDS011;25592;49.986;11.618;2023-03-01T00:22:11;20.00;;;9.38;;
39924;SDS011;25592;49.986;11.618;2023-03-01T00:24:56;19.08;;;9.45;;
39924;SDS011;25592;49.986;11.618;2023-03-01T00:27:42;19.77;;;9.23;;
39924;SDS011;25592;49.986;11.618;2023-03-01T00:30:27;19.63;;;9.27;;
39924;SDS011;25592;49.986;11.618;2023-03-01T00:33:13;19.67;;;9.45;;
39924;SDS011;25592;49.986;11.618;2023-03-01T00:35:58;16.77;;;9.27;;
39924;SDS011;25592;49.986;11.618;2023-03-01T00:38:45;14.57;;;8.52;;
39924;SDS011;25592;49.986;11.618;2023-03-01T00:41:30;14.10;;;7.90;;
39924;SDS011;25592;49.986;11.618;2023-03-01T00:44:16;20.75;;;8.95;;
39924;SDS011;25592;49.986;11.618;2023-03-01T00:47:02;20.08;;;9.82;;
39924;SDS011;25592;49.986;11.618;2023-03-01T00:49:47;21.48;;;8.70;;
39924;SDS011;25592;49.986;11.618;2023-03-01T00:52:33;17.48;;;8.70;;
39924;SDS011;25592;49.986;11.618;2023-03-01T00:55:18;16.90;;;8.98;;
39924;SDS011;25592;49.986;11.618;2023-03-01T00:58:04;16.88;;;8.82;;
39924;SDS011;25592;49.986;11.618;2023-03-01T01:00:49;18.08;;;9.82;;
39924;SDS011;25592;49.986;11.618;2023-03-01T01:03:34;21.13;;;9.23;;
39924;SDS011;25592;49.986;11.618;2023-03-01T01:06:21;17.50;;;8.88;;
39924;SDS011;25592;49.986;11.618;2023-03-01T01:09:08;18.42;;;8.60;;
39924;SDS011;25592;49.986;11.618;2023-03-01T01:12:01;17.30;;;8.45;;
39924;SDS011;25592;49.986;11.618;2023-03-01T01:14:47;19.40;;;8.48;;
39924;SDS011;25592;49.986;11.618;2023-03-01T01:17:32;16.52;;;7.88;;
39924;SDS011;25592;49.986;11.618;2023-03-01T01:20:18;17.02;;;8.38;;
39924;SDS011;25592;49.986;11.618;2023-03-01T01:23:04;19.75;;;8.85;;
39924;SDS011;25592;49.986;11.618;2023-03-01T01:25:50;18.05;;;8.68;;
39924;SDS011;25592;49.986;11.618;2023-03-01T01:28:35;18.60;;;10.05;;
39924;SDS011;25592;49.986;11.618;2023-03-01T01:31:20;19.23;;;8.82;;
39924;SDS011;25592;49.986;11.618;2023-03-01T01:34:09;17.90;;;8.85;;
39924;SDS011;25592;49.986;11.618;2023-03-01T01:36:58;22.83;;;9.45;;
39924;SDS011;25592;49.986;11.618;2023-03-01T01:39:47;22.85;;;9.25;;
39924;SDS011;25592;49.986;11.618;2023-03-01T01:42:32;18.92;;;10.65;;
39924;SDS011;25592;49.986;11.618;2023-03-01T01:45:34;18.70;;;8.68;;
39924;SDS011;25592;49.986;11.618;2023-03-01T01:48:21;19.85;;;9.18;;
39924;SDS011;25592;49.986;11.618;2023-03-01T01:51:11;19.00;;;9.32;;
39924;SDS011;25592;49.986;11.618;2023-03-01T01:53:59;16.25;;;7.60;;
39924;SDS011;25592;49.986;11.618;2023-03-01T01:56:47;19.58;;;9.23;;
39924;SDS011;25592;49.986;11.618;2023-03-01T01:59:37;19.17;;;9.65;;
39924;SDS011;25592;49.986;11.618;2023-03-01T02:02:23;18.13;;;8.75;;
39924;SDS011;25592;49.986;11.618;2023-03-01T02:05:11;19.33;;;8.85;;
39924;SDS011;25592;49.986;11.618;2023-03-01T02:08:04;16.63;;;9.02;;
39924;SDS011;25592;49.986;11.618;2023-03-01T02:10:50;21.38;;;8.65;;
39924;SDS011;25592;49.986;11.618;2023-03-01T02:13:37;18.27;;;9.18;;
39924;SDS011;25592;49.986;11.618;2023-03-01T02:16:22;17.60;;;9.40;;
39924;SDS011;25592;49.986;11.618;2023-03-01T02:19:08;17.85;;;8.18;;
39924;SDS011;25592;49.986;11.618;2023-03-01T02:22:24;19.10;;;8.32;;
39924;SDS011;25592;49.986;11.618;2023-03-01T02:30:55;18.27;;;9.07;;
39924;SDS011;25592;49.986;11.618;2023-03-01T02:33:59;20.42;;;9.52;;
39924;SDS011;25592;49.986;11.618;2023-03-01T02:36:53;18.42;;;9.05;;
39924;SDS011;25592;49.986;11.618;2023-03-01T02:42:30;16.40;;;8.77;;
39924;SDS011;25592;49.986;11.618;2023-03-01T02:45:20;21.70;;;9.35;;
39924;SDS011;25592;49.986;11.618;2023-03-01T02:48:05;22.23;;;9.52;;
39924;SDS011;25592;49.986;11.618;2023-03-01T02:54:21;23.95;;;10.30;;
39924;SDS011;25592;49.986;11.618;2023-03-01T02:57:26;19.02;;;9.75;;
39924;SDS011;25592;49.986;11.618;2023-03-01T03:00:18;21.73;;;9.13;;
39924;SDS011;25592;49.986;11.618;2023-03-01T03:03:19;20.13;;;10.25;;
39924;SDS011;25592;49.986;11.618;2023-03-01T03:06:06;20.88;;;9.00;;
39924;SDS011;25592;49.986;11.618;2023-03-01T03:08:52;21.15;;;8.82;;
39924;SDS011;25592;49.986;11.618;2023-03-01T03:11:38;24.58;;;9.82;;
39924;SDS011;25592;49.986;11.618;2023-03-01T03:14:27;20.98;;;10.07;;
39924;SDS011;25592;49.986;11.618;2023-03-01T03:17:12;20.67;;;10.40;;
39924;SDS011;25592;49.986;11.618;2023-03-01T03:19:58;23.60;;;9.70;;
39924;SDS011;25592;49.986;11.618;2023-03-01T03:22:43;16.20;;;8.95;;
39924;SDS011;25592;49.986;11.618;2023-03-01T03:25:29;17.48;;;9.15;;
39924;SDS011;25592;49.986;11.618;2023-03-01T03:28:14;22.65;;;10.52;;
39924;SDS011;25592;49.986;11.618;2023-03-01T03:31:00;21.70;;;10.25;;
39924;SDS011;25592;49.986;11.618;2023-03-01T03:33:48;22.30;;;10.65;;
39924;SDS011;25592;49.986;11.618;2023-03-01T03:36:33;21.23;;;9.50;;
39924;SDS011;25592;49.986;11.618;2023-03-01T03:39:19;19.98;;;9.70;;
39924;SDS011;25592;49.986;11.618;2023-03-01T03:42:05;21.23;;;10.18;;
39924;SDS011;25592;49.986;11.618;2023-03-01T03:44:50;17.52;;;9.07;;
39924;SDS011;25592;49.986;11.618;2023-03-01T03:47:35;22.85;;;10.40;;
39924;SDS011;25592;49.986;11.618;2023-03-01T03:50:21;21.73;;;9.63;;
39924;SDS011;25592;49.986;11.618;2023-03-01T03:53:07;24.83;;;9.90;;
39924;SDS011;25592;49.986;11.618;2023-03-01T03:55:54;19.35;;;9.55;;
39924;SDS011;25592;49.986;11.618;2023-03-01T03:58:40;21.60;;;9.98;;
39924;SDS011;25592;49.986;11.618;2023-03-01T04:01:25;20.85;;;10.32;;
39924;SDS011;25592;49.986;11.618;2023-03-01T04:04:11;22.42;;;9.25;;
39924;SDS011;25592;49.986;11.618;2023-03-01T04:06:56;19.52;;;9.55;;
39924;SDS011;25592;49.986;11.618;2023-03-01T04:09:42;22.85;;;10.23;;
39924;SDS011;25592;49.986;11.618;2023-03-01T04:12:27;25.13;;;10.55;;
39924;SDS011;25592;49.986;11.618;2023-03-01T04:15:13;21.40;;;10.23;;
39924;SDS011;25592;49.986;11.618;2023-03-01T04:17:58;23.63;;;10.57;;
39924;SDS011;25592;49.986;11.618;2023-03-01T04:20:44;20.15;;;10.13;;
39924;SDS011;25592;49.986;11.618;2023-03-01T04:23:30;26.05;;;11.02;;
39924;SDS011;25592;49.986;11.618;2023-03-01T04:26:15;23.55;;;10.95;;
39924;SDS011;25592;49.986;11.618;2023-03-01T04:29:01;20.05;;;9.93;;
39924;SDS011;25592;49.986;11.618;2023-03-01T04:31:47;28.75;;;11.20;;
39924;SDS011;25592;49.986;11.618;2023-03-01T04:34:33;21.77;;;11.05;;
39924;SDS011;25592;49.986;11.618;2023-03-01T04:37:19;21.85;;;10.82;;
39924;SDS011;25592;49.986;11.618;2023-03-01T04:40:05;26.25;;;11.23;;
39924;SDS011;25592;49.986;11.618;2023-03-01T04:43:00;22.58;;;10.65;;
39924;SDS011;25592;49.986;11.618;2023-03-01T04:45:46;25.27;;;10.38;;
39924;SDS011;25592;49.986;11.618;2023-03-01T04:48:32;22.35;;;10.20;;
39924;SDS011;25592;49.986;11.618;2023-03-01T04:51:17;22.45;;;10.52;;
39924;SDS011;25592;49.986;11.618;2023-03-01T04:54:03;23.92;;;11.57;;
39924;SDS011;25592;49.986;11.618;2023-03-01T04:56:49;19.73;;;10.63;;
39924;SDS011;25592;49.986;11.618;2023-03-01T04:59:35;25.45;;;11.60;;
39924;SDS011;25592;49.986;11.618;2023-03-01T05:02:20;25.80;;;11.90;;
39924;SDS011;25592;49.986;11.618;2023-03-01T05:05:06;25.25;;;11.73;;
39924;SDS011;25592;49.986;11.618;2023-03-01T05:07:58;25.67;;;12.13;;
39924;SDS011;25592;49.986;11.618;2023-03-01T05:10:45;20.35;;;10.48;;
39924;SDS011;25592;49.986;11.618;2023-03-01T05:13:34;28.48;;;14.05;;
39924;SDS011;25592;49.986;11.618;2023-03-01T05:16:20;30.33;;;14.18;;
39924;SDS011;25592;49.986;11.618;2023-03-01T05:19:06;29.77;;;12.82;;
39924;SDS011;25592;49.986;11.618;2023-03-01T05:21:59;23.05;;;11.13;;
39924;SDS011;25592;49.986;11.618;2023-03-01T05:24:50;23.77;;;10.23;;
39924;SDS011;25592;49.986;11.618;2023-03-01T05:27:36;26.15;;;11.23;;
39924;SDS011;25592;49.986;11.618;2023-03-01T05:30:21;22.70;;;11.60;;
39924;SDS011;25592;49.986;11.618;2023-03-01T05:33:07;26.38;;;11.93;;
39924;SDS011;25592;49.986;11.618;2023-03-01T05:35:59;23.42;;;11.65;;
39924;SDS011;25592;49.986;11.618;2023-03-01T05:38:45;25.67;;;11.50;;
39924;SDS011;25592;49.986;11.618;2023-03-01T05:41:30;23.15;;;10.10;;
39924;SDS011;25592;49.986;11.618;2023-03-01T05:44:16;22.70;;;10.73;;
39924;SDS011;25592;49.986;11.618;2023-03-01T05:47:01;26.23;;;11.77;;
39924;SDS011;25592;49.986;11.618;2023-03-01T05:49:46;21.88;;;10.85;;
39924;SDS011;25592;49.986;11.618;2023-03-01T05:52:34;26.85;;;11.07;;
39924;SDS011;25592;49.986;11.618;2023-03-01T05:55:20;23.98;;;11.85;;
39924;SDS011;25592;49.986;11.618;2023-03-01T05:58:07;20.40;;;10.70;;
39924;SDS011;25592;49.986;11.618;2023-03-01T06:00:53;24.52;;;11.80;;
39924;SDS011;25592;49.986;11.618;2023-03-01T06:03:41;22.35;;;11.13;;
39924;SDS011;25592;49.986;11.618;2023-03-01T06:06:26;21.40;;;11.32;;
39924;SDS011;25592;49.986;11.618;2023-03-01T06:09:13;22.48;;;10.73;;
39924;SDS011;25592;49.986;11.618;2023-03-01T06:11:59;24.90;;;11.77;;
39924;SDS011;25592;49.986;11.618;2023-03-01T06:14:45;26.08;;;12.13;;
39924;SDS011;25592;49.986;11.618;2023-03-01T06:17:32;23.25;;;11.40;;
39924;SDS011;25592;49.986;11.618;2023-03-01T06:20:23;32.17;;;13.65;;
39924;SDS011;25592;49.986;11.618;2023-03-01T06:23:08;25.50;;;11.45;;
39924;SDS011;25592;49.986;11.618;2023-03-01T06:25:54;24.30;;;11.18;;
39924;SDS011;25592;49.986;11.618;2023-03-01T06:28:40;27.95;;;11.98;;
39924;SDS011;25592;49.986;11.618;2023-03-01T06:31:26;21.92;;;10.45;;
39924;SDS011;25592;49.986;11.618;2023-03-01T06:34:12;23.45;;;11.60;;
39924;SDS011;25592;49.986;11.618;2023-03-01T06:36:58;26.80;;;12.60;;
39924;SDS011;25592;49.986;11.618;2023-03-01T06:39:43;20.95;;;11.23;;
39924;SDS011;25592;49.986;11.618;2023-03-01T06:42:29;22.33;;;10.82;;
39924;SDS011;25592;49.986;11.618;2023-03-01T06:45:15;22.20;;;10.77;;
39924;SDS011;25592;49.986;11.618;2023-03-01T06:48:05;22.65;;;10.82;;
39924;SDS011;25592;49.986;11.618;2023-03-01T06:50:50;26.08;;;11.77;;
39924;SDS011;25592;49.986;11.618;2023-03-01T06:53:36;30.55;;;11.70;;
39924;SDS011;25592;49.986;11.618;2023-03-01T06:56:22;25.63;;;12.98;;
39924;SDS011;25592;49.986;11.618;2023-03-01T06:59:08;30.67;;;12.98;;
39924;SDS011;25592;49.986;11.618;2023-03-01T07:01:53;24.45;;;11.57;;
39924;SDS011;25592;49.986;11.618;2023-03-01T07:04:39;27.23;;;12.88;;
39924;SDS011;25592;49.986;11.618;2023-03-01T07:07:25;30.85;;;13.18;;
39924;SDS011;25592;49.986;11.618;2023-03-01T07:10:12;16.23;;;7.47;;
39924;SDS011;25592;49.986;11.618;2023-03-01T07:12:58;23.83;;;12.23;;
39924;SDS011;25592;49.986;11.618;2023-03-01T07:15:44;26.67;;;12.30;;
39924;SDS011;25592;49.986;11.618;2023-03-01T07:18:29;28.80;;;13.98;;
39924;SDS011;25592;49.986;11.618;2023-03-01T07:21:15;22.70;;;12.00;;
39924;SDS011;25592;49.986;11.618;2023-03-01T07:24:01;28.52;;;13.60;;
39924;SDS011;25592;49.986;11.618;2023-03-01T07:26:49;28.55;;;11.65;;
39924;SDS011;25592;49.986;11.618;2023-03-01T07:29:35;26.23;;;13.57;;
39924;SDS011;25592;49.986;11.618;2023-03-01T07:32:21;22.27;;;11.85;;
39924;SDS011;25592;49.986;11.618;2023-03-01T07:35:06;25.25;;;12.10;;
39924;SDS011;25592;49.986;11.618;2023-03-01T07:37:52;27.13;;;13.57;;
39924;SDS011;25592;49.986;11.618;2023-03-01T07:40:37;24.63;;;11.75;;
39924;SDS011;25592;49.986;11.618;2023-03-01T07:43:23;28.30;;;11.93;;
39924;SDS011;25592;49.986;11.618;2023-03-01T07:46:08;21.75;;;10.98;;
39924;SDS011;25592;49.986;11.618;2023-03-01T07:48:54;33.42;;;13.75;;
39924;SDS011;25592;49.986;11.618;2023-03-01T07:51:40;29.25;;;14.93;;
39924;SDS011;25592;49.986;11.618;2023-03-01T07:54:26;27.58;;;12.82;;
39924;SDS011;25592;49.986;11.618;2023-03-01T07:57:11;27.55;;;12.60;;
39924;SDS011;25592;49.986;11.618;2023-03-01T07:59:57;26.20;;;12.70;;
39924;SDS011;25592;49.986;11.618;2023-03-01T08:02:42;26.50;;;12.00;;
39924;SDS011;25592;49.986;11.618;2023-03-01T08:05:28;27.70;;;12.27;;
39924;SDS011;25592;49.986;11.618;2023-03-01T08:08:13;27.95;;;11.27;;
39924;SDS011;25592;49.986;11.618;2023-03-01T08:10:59;21.00;;;9.70;;
39924;SDS011;25592;49.986;11.618;2023-03-01T08:13:47;27.77;;;12.02;;
39924;SDS011;25592;49.986;11.618;2023-03-01T08:16:36;25.13;;;11.43;;
39924;SDS011;25592;49.986;11.618;2023-03-01T08:19:22;27.48;;;12.35;;
39924;SDS011;25592;49.986;11.618;2023-03-01T08:22:07;29.73;;;13.10;;
39924;SDS011;25592;49.986;11.618;2023-03-01T08:24:53;26.75;;;12.70;;
39924;SDS011;25592;49.986;11.618;2023-03-01T08:27:40;32.13;;;13.65;;
39924;SDS011;25592;49.986;11.618;2023-03-01T08:30:25;28.08;;;12.27;;
39924;SDS011;25592;49.986;11.618;2023-03-01T08:33:11;30.85;;;12.38;;
39924;SDS011;25592;49.986;11.618;2023-03-01T08:36:03;24.77;;;11.57;;
39924;SDS011;25592;49.986;11.618;2023-03-01T08:38:51;23.38;;;11.63;;
39924;SDS011;25592;49.986;11.618;2023-03-01T08:41:37;24.63;;;11.30;;
39924;SDS011;25592;49.986;11.618;2023-03-01T08:44:23;24.63;;;11.43;;
39924;SDS011;25592;49.986;11.618;2023-03-01T08:47:09;22.15;;;11.55;;
39924;SDS011;25592;49.986;11.618;2023-03-01T08:49:54;24.98;;;11.15;;
39924;SDS011;25592;49.986;11.618;2023-03-01T08:52:40;24.77;;;10.93;;
39924;SDS011;25592;49.986;11.618;2023-03-01T08:55:25;20.88;;;10.68;;
39924;SDS011;25592;49.986;11.618;2023-03-01T08:58:11;25.17;;;12.48;;
39924;SDS011;25592;49.986;11.618;2023-03-01T09:00:56;26.67;;;12.00;;
39924;SDS011;25592;49.986;11.618;2023-03-01T09:03:42;25.92;;;12.73;;
39924;SDS011;25592;49.986;11.618;2023-03-01T09:06:30;23.33;;;11.70;;
39924;SDS011;25592;49.986;11.618;2023-03-01T09:09:17;21.50;;;11.48;;
39924;SDS011;25592;49.986;11.618;2023-03-01T09:12:03;24.45;;;13.02;;
39924;SDS011;25592;49.986;11.618;2023-03-01T09:14:49;24.02;;;10.73;;
39924;SDS011;25592;49.986;11.618;2023-03-01T09:17:34;26.23;;;11.63;;
39924;SDS011;25592;49.986;11.618;2023-03-01T09:20:19;21.00;;;11.15;;
39924;SDS011;25592;49.986;11.618;2023-03-01T09:23:05;22.08;;;10.68;;
39924;SDS011;25592;49.986;11.618;2023-03-01T09:25:50;19.90;;;10.52;;
39924;SDS011;25592;49.986;11.618;2023-03-01T09:28:37;20.95;;;11.43;;
39924;SDS011;25592;49.986;11.618;2023-03-01T09:31:23;23.13;;;12.07;;
39924;SDS011;25592;49.986;11.618;2023-03-01T09:34:09;23.75;;;10.98;;
39924;SDS011;25592;49.986;11.618;2023-03-01T09:36:54;22.10;;;10.50;;
39924;SDS011;25592;49.986;11.618;2023-03-01T09:39:42;22.50;;;11.52;;
39924;SDS011;25592;49.986;11.618;2023-03-01T09:42:27;24.70;;;10.63;;
39924;SDS011;25592;49.986;11.618;2023-03-01T09:45:21;19.10;;;9.88;;
39924;SDS011;25592;49.986;11.618;2023-03-01T09:48:19;18.58;;;9.90;;
39924;SDS011;25592;49.986;11.618;2023-03-01T09:51:09;22.52;;;10.75;;
39924;SDS011;25592;49.986;11.618;2023-03-01T09:54:05;20.38;;;10.02;;
39924;SDS011;25592;49.986;11.618;2023-03-01T10:06:21;22.65;;;10.40;;
39924;SDS011;25592;49.986;11.618;2023-03-01T10:09:19;22.10;;;10.82;;
39924;SDS011;25592;49.986;11.618;2023-03-01T10:12:10;19.70;;;9.57;;
39924;SDS011;25592;49.986;11.618;2023-03-01T10:15:03;16.63;;;9.52;;
39924;SDS011;25592;49.986;11.618;2023-03-01T10:17:56;17.70;;;10.02;;
39924;SDS011;25592;49.986;11.618;2023-03-01T10:21:00;20.75;;;10.63;;
39924;SDS011;25592;49.986;11.618;2023-03-01T10:23:49;17.80;;;10.18;;
39924;SDS011;25592;49.986;11.618;2023-03-01T10:26:40;17.50;;;9.13;;
39924;SDS011;25592;49.986;11.618;2023-03-01T10:29:37;15.98;;;9.02;;
39924;SDS011;25592;49.986;11.618;2023-03-01T10:32:31;17.35;;;9.80;;
39924;SDS011;25592;49.986;11.618;2023-03-01T10:35:18;19.17;;;10.77;;
39924;SDS011;25592;49.986;11.618;2023-03-01T10:38:06;18.67;;;9.50;;
39924;SDS011;25592;49.986;11.618;2023-03-01T10:41:10;17.52;;;8.98;;
39924;SDS011;25592;49.986;11.618;2023-03-01T10:43:56;19.70;;;10.30;;
39924;SDS011;25592;49.986;11.618;2023-03-01T10:46:43;19.67;;;11.15;;
39924;SDS011;25592;49.986;11.618;2023-03-01T10:49:29;19.02;;;10.48;;
39924;SDS011;25592;49.986;11.618;2023-03-01T10:52:18;23.17;;;9.75;;
39924;SDS011;25592;49.986;11.618;2023-03-01T10:58:06;18.80;;;9.55;;
39924;SDS011;25592;49.986;11.618;2023-03-01T11:07:00;17.63;;;9.52;;
39924;SDS011;25592;49.986;11.618;2023-03-01T11:09:46;18.05;;;10.23;;
39924;SDS011;25592;49.986;11.618;2023-03-01T11:12:31;18.33;;;10.20;;
39924;SDS011;25592;49.986;11.618;2023-03-01T11:15:22;20.23;;;10.80;;
39924;SDS011;25592;49.986;11.618;2023-03-01T11:18:20;20.73;;;10.75;;
39924;SDS011;25592;49.986;11.618;2023-03-01T11:21:20;16.35;;;10.18;;
39924;SDS011;25592;49.986;11.618;2023-03-01T11:24:06;20.20;;;11.48;;
39924;SDS011;25592;49.986;11.618;2023-03-01T11:26:56;19.10;;;10.05;;
39924;SDS011;25592;49.986;11.618;2023-03-01T11:38:57;18.85;;;9.75;;
39924;SDS011;25592;49.986;11.618;2023-03-01T11:42:05;16.85;;;9.85;;
39924;SDS011;25592;49.986;11.618;2023-03-01T11:45:12;18.40;;;10.65;;
39924;SDS011;25592;49.986;11.618;2023-03-01T11:50:52;19.30;;;9.38;;
39924;SDS011;25592;49.986;11.618;2023-03-01T11:53:50;16.40;;;10.02;;
39924;SDS011;25592;49.986;11.618;2023-03-01T11:56:46;17.92;;;9.55;;
39924;SDS011;25592;49.986;11.618;2023-03-01T12:03:08;20.02;;;11.60;;
39924;SDS011;25592;49.986;11.618;2023-03-01T12:09:38;20.42;;;10.52;;
39924;SDS011;25592;49.986;11.618;2023-03-01T12:12:37;17.02;;;10.00;;
39924;SDS011;25592;49.986;11.618;2023-03-01T12:15:51;18.58;;;9.80;;
39924;SDS011;25592;49.986;11.618;2023-03-01T12:38:19;16.80;;;9.20;;
39924;SDS011;25592;49.986;11.618;2023-03-01T12:41:12;19.33;;;10.63;;
39924;SDS011;25592;49.986;11.618;2023-03-01T12:44:30;19.00;;;9.95;;
39924;SDS011;25592;49.986;11.618;2023-03-01T12:50:42;17.08;;;9.73;;
39924;SDS011;25592;49.986;11.618;2023-03-01T12:53:38;17.48;;;10.13;;
39924;SDS011;25592;49.986;11.618;2023-03-01T12:56:28;16.63;;;9.18;;
39924;SDS011;25592;49.986;11.618;2023-03-01T12:59:22;17.33;;;10.07;;
39924;SDS011;25592;49.986;11.618;2023-03-01T13:02:32;16.30;;;9.40;;
39924;SDS011;25592;49.986;11.618;2023-03-01T13:05:40;15.93;;;9.48;;
39924;SDS011;25592;49.986;11.618;2023-03-01T13:11:45;16.42;;;9.80;;
39924;SDS011;25592;49.986;11.618;2023-03-01T13:17:29;17.13;;;10.38;;
39924;SDS011;25592;49.986;11.618;2023-03-01T13:20:17;21.48;;;10.05;;
39924;SDS011;25592;49.986;11.618;2023-03-01T13:26:15;20.20;;;9.75;;
39924;SDS011;25592;49.986;11.618;2023-03-01T13:29:02;17.63;;;9.77;;
39924;SDS011;25592;49.986;11.618;2023-03-01T13:34:40;14.93;;;9.52;;
39924;SDS011;25592;49.986;11.618;2023-03-01T13:37:33;17.23;;;9.30;;
39924;SDS011;25592;49.986;11.618;2023-03-01T13:43:26;15.43;;;8.93;;
39924;SDS011;25592;49.986;11.618;2023-03-01T13:49:04;15.63;;;8.50;;
39924;SDS011;25592;49.986;11.618;2023-03-01T13:51:50;17.40;;;9.63;;
39924;SDS011;25592;49.986;11.618;2023-03-01T13:54:36;15.32;;;9.45;;
39924;SDS011;25592;49.986;11.618;2023-03-01T13:57:26;16.23;;;8.82;;
39924;SDS011;25592;49.986;11.618;2023-03-01T14:00:35;17.40;;;9.52;;
39924;SDS011;25592;49.986;11.618;2023-03-01T14:03:21;16.27;;;9.73;;
39924;SDS011;25592;49.986;11.618;2023-03-01T14:06:08;17.38;;;9.93;;
39924;SDS011;25592;49.986;11.618;2023-03-01T14:20:44;19.70;;;11.73;;
39924;SDS011;25592;49.986;11.618;2023-03-01T14:23:37;17.35;;;10.48;;
39924;SDS011;25592;49.986;11.618;2023-03-01T14:26:26;19.73;;;11.45;;
39924;SDS011;25592;49.986;11.618;2023-03-01T14:29:33;17.33;;;10.75;;
39924;SDS011;25592;49.986;11.618;2023-03-01T14:32:21;18.10;;;11.50;;
39924;SDS011;25592;49.986;11.618;2023-03-01T14:35:19;18.15;;;10.80;;
39924;SDS011;25592;49.986;11.618;2023-03-01T14:38:20;18.55;;;11.00;;
39924;SDS011;25592;49.986;11.618;2023-03-01T14:41:07;23.67;;;11.55;;
39924;SDS011;25592;49.986;11.618;2023-03-01T14:44:00;18.05;;;10.82;;
39924;SDS011;25592;49.986;11.618;2023-03-01T14:46:51;19.75;;;11.02;;
39924;SDS011;25592;49.986;11.618;2023-03-01T14:49:38;19.30;;;11.88;;
39924;SDS011;25592;49.986;11.618;2023-03-01T14:52:25;22.33;;;11.73;;
39924;SDS011;25592;49.986;11.618;2023-03-01T14:55:30;19.38;;;12.55;;
39924;SDS011;25592;49.986;11.618;2023-03-01T14:58:21;28.20;;;15.73;;
39924;SDS011;25592;49.986;11.618;2023-03-01T15:01:13;22.15;;;13.00;;
39924;SDS011;25592;49.986;11.618;2023-03-01T15:04:01;25.75;;;13.50;;
39924;SDS011;25592;49.986;11.618;2023-03-01T15:06:47;21.08;;;12.90;;
39924;SDS011;25592;49.986;11.618;2023-03-01T15:09:36;23.13;;;12.85;;
39924;SDS011;25592;49.986;11.618;2023-03-01T15:18:16;26.05;;;14.93;;
39924;SDS011;25592;49.986;11.618;2023-03-01T15:23:55;25.08;;;14.70;;
39924;SDS011;25592;49.986;11.618;2023-03-01T15:29:39;20.75;;;13.70;;
39924;SDS011;25592;49.986;11.618;2023-03-01T15:32:29;26.23;;;14.50;;
39924;SDS011;25592;49.986;11.618;2023-03-01T15:38:34;22.77;;;13.88;;
39924;SDS011;25592;49.986;11.618;2023-03-01T15:41:47;27.00;;;15.10;;
39924;SDS011;25592;49.986;11.618;2023-03-01T15:44:37;25.50;;;14.32;;
39924;SDS011;25592;49.986;11.618;2023-03-01T15:47:31;24.33;;;13.88;;
39924;SDS011;25592;49.986;11.618;2023-03-01T15:50:30;24.73;;;13.55;;
39924;SDS011;25592;49.986;11.618;2023-03-01T15:53:20;26.48;;;14.95;;
39924;SDS011;25592;49.986;11.618;2023-03-01T15:56:06;26.48;;;13.63;;
39924;SDS011;25592;49.986;11.618;2023-03-01T15:58:52;20.88;;;12.82;;
39924;SDS011;25592;49.986;11.618;2023-03-01T16:01:37;24.33;;;13.50;;
39924;SDS011;25592;49.986;11.618;2023-03-01T16:04:22;24.67;;;13.75;;
39924;SDS011;25592;49.986;11.618;2023-03-01T16:07:08;23.52;;;14.45;;
39924;SDS011;25592;49.986;11.618;2023-03-01T16:09:54;22.45;;;12.80;;
39924;SDS011;25592;49.986;11.618;2023-03-01T16:12:40;26.15;;;15.52;;
39924;SDS011;25592;49.986;11.618;2023-03-01T16:15:27;26.35;;;13.57;;
39924;SDS011;25592;49.986;11.618;2023-03-01T16:18:16;25.50;;;13.98;;
39924;SDS011;25592;49.986;11.618;2023-03-01T16:21:02;22.92;;;13.75;;
39924;SDS011;25592;49.986;11.618;2023-03-01T16:23:48;26.10;;;13.80;;
39924;SDS011;25592;49.986;11.618;2023-03-01T16:26:34;27.88;;;13.48;;
39924;SDS011;25592;49.986;11.618;2023-03-01T16:29:21;23.80;;;12.60;;
39924;SDS011;25592;49.986;11.618;2023-03-01T16:32:06;23.63;;;13.35;;
39924;SDS011;25592;49.986;11.618;2023-03-01T16:34:52;22.30;;;13.32;;
39924;SDS011;25592;49.986;11.618;2023-03-01T16:37:38;22.67;;;12.48;;
39924;SDS011;25592;49.986;11.618;2023-03-01T16:40:25;25.35;;;12.80;;
39924;SDS011;25592;49.986;11.618;2023-03-01T16:43:11;26.08;;;13.57;;
39924;SDS011;25592;49.986;11.618;2023-03-01T16:45:57;25.23;;;13.52;;
39924;SDS011;25592;49.986;11.618;2023-03-01T16:48:43;22.60;;;13.25;;
39924;SDS011;25592;49.986;11.618;2023-03-01T16:51:29;26.35;;;12.98;;
39924;SDS011;25592;49.986;11.618;2023-03-01T16:54:16;29.52;;;14.70;;
39924;SDS011;25592;49.986;11.618;2023-03-01T16:57:01;22.17;;;12.80;;
39924;SDS011;25592;49.986;11.618;2023-03-01T16:59:52;24.88;;;12.93;;
39924;SDS011;25592;49.986;11.618;2023-03-01T17:02:38;21.95;;;12.13;;
39924;SDS011;25592;49.986;11.618;2023-03-01T17:05:25;26.67;;;13.57;;
39924;SDS011;25592;49.986;11.618;2023-03-01T17:08:11;21.27;;;13.32;;
39924;SDS011;25592;49.986;11.618;2023-03-01T17:11:01;26.10;;;13.73;;
39924;SDS011;25592;49.986;11.618;2023-03-01T17:13:48;26.65;;;13.25;;
39924;SDS011;25592;49.986;11.618;2023-03-01T17:16:34;29.50;;;14.07;;
39924;SDS011;25592;49.986;11.618;2023-03-01T17:19:20;28.02;;;12.63;;
39924;SDS011;25592;49.986;11.618;2023-03-01T17:22:06;24.63;;;13.25;;
39924;SDS011;25592;49.986;11.618;2023-03-01T17:24:51;22.50;;;12.50;;
39924;SDS011;25592;49.986;11.618;2023-03-01T17:27:37;25.73;;;12.73;;
39924;SDS011;25592;49.986;11.618;2023-03-01T17:30:23;22.27;;;12.55;;
39924;SDS011;25592;49.986;11.618;2023-03-01T17:33:08;22.95;;;13.43;;
39924;SDS011;25592;49.986;11.618;2023-03-01T17:35:55;26.63;;;13.77;;
39924;SDS011;25592;49.986;11.618;2023-03-01T17:38:40;28.48;;;14.43;;
39924;SDS011;25592;49.986;11.618;2023-03-01T17:41:26;23.83;;;12.40;;
39924;SDS011;25592;49.986;11.618;2023-03-01T17:44:12;24.17;;;12.68;;
39924;SDS011;25592;49.986;11.618;2023-03-01T17:46:58;28.13;;;13.20;;
39924;SDS011;25592;49.986;11.618;2023-03-01T17:49:43;24.20;;;13.23;;
39924;SDS011;25592;49.986;11.618;2023-03-01T17:52:28;23.63;;;12.50;;
39924;SDS011;25592;49.986;11.618;2023-03-01T17:55:15;25.83;;;13.27;;
39924;SDS011;25592;49.986;11.618;2023-03-01T17:58:00;24.45;;;13.68;;
39924;SDS011;25592;49.986;11.618;2023-03-01T18:00:45;24.73;;;11.70;;
39924;SDS011;25592;49.986;11.618;2023-03-01T18:03:31;25.90;;;13.23;;
39924;SDS011;25592;49.986;11.618;2023-03-01T18:06:21;29.55;;;13.50;;
39924;SDS011;25592;49.986;11.618;2023-03-01T18:09:08;25.08;;;12.85;;
39924;SDS011;25592;49.986;11.618;2023-03-01T18:11:53;23.13;;;12.23;;
39924;SDS011;25592;49.986;11.618;2023-03-01T18:14:39;24.00;;;12.52;;